createdAt,value
2023-02-06T00:00:17.739Z,1016.271170
2023-02-06T00:05:16.007Z,1016.430306
2023-02-06T00:10:17.296Z,1016.530093
2023-02-06T00:15:16.835Z,1016.692156
2023-02-06T00:20:16.644Z,1016.755533
2023-02-06T00:25:17.206Z,1016.836837
2023-02-06T00:30:16.148Z,1016.857010
2023-02-06T00:35:16.503Z,1016.976669
2023-02-06T00:40:18.276Z,1017.054487
2023-02-06T00:45:15.910Z,1017.154570
2023-02-06T00:50:16.377Z,1017.274070
2023-02-06T00:55:16.153Z,1017.378357
2023-02-06T01:00:16.329Z,1017.479923
2023-02-06T01:05:17.303Z,1017.515081
2023-02-06T01:10:17.110Z,1017.537122
2023-02-06T01:15:18.427Z,1017.657963
2023-02-06T01:20:15.731Z,1017.799736
2023-02-06T01:25:16.804Z,1017.800730
2023-02-06T01:30:15.964Z,1017.901355
2023-02-06T01:35:15.945Z,1017.981011
2023-02-06T01:40:16.410Z,1018.041144
2023-02-06T01:45:15.912Z,1018.180425
2023-02-06T01:50:16.994Z,1018.300430
2023-02-06T01:55:16.686Z,1018.399289
2023-02-06T02:00:16.382Z,1018.460281
2023-02-06T02:05:16.728Z,1018.619176
2023-02-06T02:10:16.222Z,1018.760059
2023-02-06T02:15:15.774Z,1018.897719
2023-02-06T02:20:16.283Z,1019.036024
2023-02-06T02:25:16.865Z,1019.074977
2023-02-06T02:30:15.802Z,1019.194974
2023-02-06T02:35:17.007Z,1019.335292
2023-02-06T02:40:16.724Z,1019.474700
2023-02-06T02:45:16.140Z,1019.614580
2023-02-06T02:50:16.468Z,1019.754361
2023-02-06T02:55:15.977Z,1019.837211
2023-02-06T03:00:16.729Z,1020.038804
2023-02-06T03:05:15.998Z,1020.198608
2023-02-06T03:10:15.958Z,1020.260404
2023-02-06T03:15:17.447Z,1020.385909
2023-02-06T03:20:16.360Z,1020.608795
2023-02-06T03:25:16.346Z,1020.769845
2023-02-06T03:30:15.708Z,1020.932561
2023-02-06T03:35:16.367Z,1020.995678
2023-02-06T03:40:20.860Z,1021.057172
2023-02-06T03:45:20.758Z,1021.138192
2023-02-06T03:50:16.250Z,1021.198374
2023-02-06T03:55:16.592Z,1021.158270
2023-02-06T04:00:16.184Z,1021.278162
2023-02-06T04:05:15.863Z,1021.455411
2023-02-06T04:10:16.047Z,1021.594622
2023-02-06T04:15:16.492Z,1021.673092
2023-02-06T04:20:15.785Z,1021.712620
2023-02-06T04:25:16.416Z,1021.772155
2023-02-06T04:30:15.856Z,1021.970362
2023-02-06T04:35:16.223Z,1022.210729
2023-02-06T04:40:17.242Z,1022.269570
2023-02-06T04:45:20.651Z,1022.428407
2023-02-06T04:50:16.020Z,1022.568042
2023-02-06T04:55:16.415Z,1022.770280
2023-02-06T05:00:16.297Z,1022.914472
2023-02-06T05:05:16.079Z,1022.976430
2023-02-06T05:10:17.298Z,1023.017143
2023-02-06T05:15:16.600Z,1023.039043
2023-02-06T05:20:16.547Z,1023.220162
2023-02-06T05:25:16.909Z,1023.339363
2023-02-06T05:30:15.744Z,1023.459436
2023-02-06T05:35:16.861Z,1023.660640
2023-02-06T05:40:15.957Z,1023.781889
2023-02-06T05:45:16.098Z,1023.862636
2023-02-06T05:50:16.323Z,1024.023859
2023-02-06T05:55:16.240Z,1024.224791
2023-02-06T06:00:16.182Z,1024.305199
2023-02-06T06:05:16.411Z,1024.386062
2023-02-06T06:10:16.092Z,1024.526461
2023-02-06T06:15:17.402Z,1024.667382
2023-02-06T06:20:15.987Z,1024.727806
2023-02-06T06:25:16.964Z,1024.808580
2023-02-06T06:30:16.317Z,1024.888990
2023-02-06T06:35:15.957Z,1024.909698
2023-02-06T06:40:15.705Z,1025.030577
2023-02-06T06:45:21.581Z,1025.191123
2023-02-06T06:50:15.869Z,1025.330906
2023-02-06T06:55:16.897Z,1025.350714
2023-02-06T07:00:16.644Z,1025.410940
2023-02-06T07:05:15.529Z,1025.530917
2023-02-06T07:10:15.808Z,1025.671251
2023-02-06T07:15:16.821Z,1025.751604
2023-02-06T07:20:15.875Z,1025.872063
2023-02-06T07:25:22.706Z,1026.012588
2023-02-06T07:30:16.862Z,1026.192822
2023-02-06T07:35:15.929Z,1026.253672
2023-02-06T07:40:17.514Z,1026.334682
2023-02-06T07:45:21.622Z,1026.295028
2023-02-06T07:50:18.099Z,1026.335123
2023-02-06T07:55:16.108Z,1026.395558
2023-02-06T08:00:17.372Z,1026.435811
2023-02-06T08:05:17.321Z,1026.476367
2023-02-06T08:10:16.151Z,1026.576985
2023-02-06T08:15:17.416Z,1026.677557
2023-02-06T08:20:16.372Z,1026.677919
2023-02-06T08:25:21.380Z,1026.798737
2023-02-06T08:30:17.176Z,1026.879467
2023-02-06T08:35:16.572Z,1026.899996
2023-02-06T08:40:16.684Z,1027.020933
2023-02-06T08:45:16.069Z,1027.100986
2023-02-06T08:50:16.890Z,1027.141038
2023-02-06T08:55:16.882Z,1027.221109
2023-02-06T09:00:16.392Z,1027.341367
2023-02-06T09:05:16.174Z,1027.381326
2023-02-06T09:10:26.787Z,1027.521684
2023-02-06T09:15:17.882Z,1027.541635
2023-02-06T09:20:17.372Z,1027.741650
2023-02-06T09:25:17.675Z,1027.861714
2023-02-06T09:30:16.777Z,1027.982287
2023-02-06T09:35:16.250Z,1028.102752
2023-02-06T09:40:16.293Z,1028.162873
2023-02-06T09:45:16.192Z,1028.183362
2023-02-06T09:50:16.792Z,1028.243711
2023-02-06T09:55:16.741Z,1028.303755
2023-02-06T10:00:16.773Z,1028.404392
2023-02-06T10:05:16.358Z,1028.544040
2023-02-06T10:10:16.001Z,1028.664125
2023-02-06T10:15:16.540Z,1028.744363
2023-02-06T10:20:15.678Z,1028.844013
2023-02-06T10:25:16.267Z,1028.904585
2023-02-06T10:30:16.734Z,1028.964901
2023-02-06T10:35:15.950Z,1029.084973
2023-02-06T10:40:15.942Z,1029.044902
2023-02-06T10:45:20.085Z,1029.105271
2023-02-06T10:50:16.351Z,1029.125334
2023-02-06T10:55:16.147Z,1029.125323
2023-02-06T11:00:17.168Z,1029.145375
2023-02-06T11:05:17.415Z,1029.205507
2023-02-06T11:10:17.920Z,1029.105265
2023-02-06T11:15:16.126Z,1029.125094
2023-02-06T11:20:16.099Z,1029.205284
2023-02-06T11:25:16.281Z,1029.204890
2023-02-06T11:30:18.234Z,1029.324974
2023-02-06T11:35:16.400Z,1029.285102
2023-02-06T11:40:16.085Z,1029.304980
2023-02-06T11:45:16.416Z,1029.365032
2023-02-06T11:50:15.667Z,1029.245011
2023-02-06T11:55:16.324Z,1029.244632
2023-02-06T12:00:15.622Z,1029.304199
2023-02-06T12:05:15.860Z,1029.304229
2023-02-06T12:10:17.144Z,1029.244573
2023-02-06T12:15:39.912Z,1029.244731
2023-02-06T12:20:16.216Z,1029.304772
2023-02-06T12:25:16.543Z,1029.344931
2023-02-06T12:30:16.454Z,1029.384992
2023-02-06T12:35:16.676Z,1029.425164
2023-02-06T12:40:16.040Z,1029.405074
2023-02-06T12:45:16.777Z,1029.504997
2023-02-06T12:50:16.158Z,1029.464475
2023-02-06T12:55:16.292Z,1029.464284
2023-02-06T13:00:15.588Z,1029.463589
2023-02-06T13:05:16.783Z,1029.503736
2023-02-06T13:10:15.938Z,1029.544481
2023-02-06T13:15:16.368Z,1029.624047
2023-02-06T13:20:16.109Z,1029.663977
2023-02-06T13:25:17.623Z,1029.563329
2023-02-06T13:30:16.043Z,1029.623387
2023-02-06T13:35:16.158Z,1029.543839
2023-02-06T13:40:16.866Z,1029.544045
2023-02-06T13:45:17.078Z,1029.545058
2023-02-06T13:50:16.355Z,1029.525825
2023-02-06T13:55:15.793Z,1029.586195
2023-02-06T14:00:15.624Z,1029.687763
2023-02-06T14:05:17.278Z,1029.708366
2023-02-06T14:15:15.984Z,1029.768581
2023-02-06T14:20:16.243Z,1029.788602
2023-02-06T14:25:16.846Z,1029.689236
2023-02-06T14:30:15.732Z,1029.689002
2023-02-06T14:35:15.724Z,1029.769379
2023-02-06T14:40:15.974Z,1029.869665
2023-02-06T14:45:16.384Z,1029.890378
2023-02-06T14:50:16.716Z,1029.950357
2023-02-06T14:55:15.619Z,1029.970854
2023-02-06T15:00:16.824Z,1030.031644
2023-02-06T15:05:15.689Z,1030.011550
2023-02-06T15:10:16.828Z,1029.930656
2023-02-06T15:15:15.737Z,1029.950260
2023-02-06T15:20:16.257Z,1029.889621
2023-02-06T15:25:17.515Z,1029.889579
2023-02-06T15:30:15.735Z,1029.889745
2023-02-06T15:35:16.676Z,1029.929702
2023-02-06T15:40:16.100Z,1030.009401
2023-02-06T15:45:16.078Z,1030.109217
2023-02-06T15:50:16.059Z,1030.149398
2023-02-06T15:55:16.495Z,1030.149278
2023-02-06T16:00:15.613Z,1030.128615
2023-02-06T16:05:16.635Z,1030.148080
2023-02-06T16:10:16.470Z,1030.208668
2023-02-06T16:15:16.571Z,1030.188708
2023-02-06T16:20:15.719Z,1030.228595
2023-02-06T16:25:17.214Z,1030.187175
2023-02-06T16:30:15.808Z,1030.245979
2023-02-06T16:35:15.927Z,1030.306211
2023-02-06T16:40:15.993Z,1030.205872
2023-02-06T16:45:15.926Z,1030.306253
2023-02-06T16:50:15.741Z,1030.466119
2023-02-06T16:55:15.618Z,1030.506501
2023-02-06T17:00:15.936Z,1030.465791
2023-02-06T17:05:16.279Z,1030.506036
2023-02-06T17:10:15.930Z,1030.405043
2023-02-06T17:15:15.767Z,1030.445144
2023-02-06T17:20:16.225Z,1030.464587
2023-02-06T17:25:16.389Z,1030.524105
2023-02-06T17:30:17.531Z,1030.564298
2023-02-06T17:35:15.655Z,1030.564241
2023-02-06T17:40:16.318Z,1030.624579
2023-02-06T17:45:16.424Z,1030.684275
2023-02-06T17:50:16.503Z,1030.663933
2023-02-06T17:55:16.274Z,1030.743841
2023-02-06T18:00:21.113Z,1030.682770
2023-02-06T18:05:15.820Z,1030.602874
2023-02-06T18:10:16.577Z,1030.643363
2023-02-06T18:15:16.222Z,1030.542476
2023-02-06T18:20:15.896Z,1030.502395
2023-02-06T18:25:15.607Z,1030.521808
2023-02-06T18:30:16.282Z,1030.541854
2023-02-06T18:35:16.518Z,1030.521746
2023-02-06T18:40:15.928Z,1030.662129
2023-02-06T18:45:16.213Z,1030.622037
2023-02-06T18:50:15.628Z,1030.581565
2023-02-06T18:55:16.186Z,1030.561699
2023-02-06T19:00:16.153Z,1030.521028
2023-02-06T19:05:17.347Z,1030.540570
2023-02-06T19:10:15.852Z,1030.559273
2023-02-06T19:15:15.776Z,1030.517435
2023-02-06T19:20:20.817Z,1030.577196
2023-02-06T19:25:16.228Z,1030.517097
2023-02-06T19:30:16.637Z,1030.496787
2023-02-06T19:35:16.038Z,1030.436979
2023-02-06T19:40:15.971Z,1030.335547
2023-02-06T19:45:15.877Z,1030.294096
2023-02-06T19:50:20.971Z,1030.194194
2023-02-06T19:55:15.753Z,1030.132543
2023-02-06T20:00:17.441Z,1030.192320
2023-02-06T20:05:15.691Z,1030.272922
2023-02-06T20:10:16.882Z,1030.274036
2023-02-06T20:15:17.307Z,1030.254468
2023-02-06T20:20:16.363Z,1030.234156
2023-02-06T20:25:16.253Z,1030.113836
2023-02-06T20:30:16.016Z,1029.953757
2023-02-06T20:35:15.706Z,1029.852195
2023-02-06T20:40:15.675Z,1029.832037
2023-02-06T20:45:20.583Z,1029.892161
2023-02-06T20:50:21.164Z,1029.914328
2023-02-06T20:55:15.748Z,1029.935642
2023-02-06T21:00:16.764Z,1029.875690
2023-02-06T21:05:17.058Z,1029.935586
2023-02-06T21:10:16.598Z,1029.894873
2023-02-06T21:15:16.049Z,1029.893602
2023-02-06T21:20:15.899Z,1029.912645
2023-02-06T21:25:16.225Z,1029.811580
2023-02-06T21:30:20.798Z,1029.751382
2023-02-06T21:35:16.300Z,1029.731663
2023-02-06T21:40:16.922Z,1029.671205
2023-02-06T21:45:16.605Z,1029.610150
2023-02-06T21:50:16.150Z,1029.530030
2023-02-06T21:55:16.683Z,1029.550412
2023-02-06T22:00:17.065Z,1029.591120
2023-02-06T22:05:16.476Z,1029.611195
2023-02-06T22:10:16.689Z,1029.631912
2023-02-06T22:15:16.926Z,1029.531637
2023-02-06T22:20:16.454Z,1029.550935
2023-02-06T22:25:15.870Z,1029.590183
2023-02-06T22:30:17.250Z,1029.650496
2023-02-06T22:35:16.732Z,1029.550062
2023-02-06T22:40:15.945Z,1029.569619
2023-02-06T22:45:17.410Z,1029.568969
2023-02-06T22:50:16.025Z,1029.508614
2023-02-06T22:55:15.726Z,1029.528799
2023-02-06T23:00:17.297Z,1029.548115
2023-02-06T23:05:15.907Z,1029.527805
2023-02-06T23:10:16.268Z,1029.587111
2023-02-06T23:15:16.163Z,1029.767594
2023-02-06T23:20:17.046Z,1029.847783
2023-02-06T23:25:16.014Z,1029.667359
2023-02-06T23:30:15.942Z,1029.667535
2023-02-06T23:35:16.977Z,1029.527734
2023-02-06T23:40:16.384Z,1029.467338
2023-02-06T23:45:15.973Z,1029.527864
2023-02-06T23:50:16.180Z,1029.507304
2023-02-06T23:55:16.113Z,1029.427485
